sensor_id;sensor_type;location;lat;lon;timestamp;pressure;altitude;pressure_sealevel;temperature;humidity
80945;BME280;70400;50.934;11.590;2024-03-23T00:52:22;99288.00;;;7.08;87.36
80945;BME280;70400;50.934;11.590;2024-03-23T00:54:04;99286.88;;;7.11;87.22
80945;BME280;70400;50.934;11.590;2024-03-23T00:54:54;99293.38;;;7.16;86.54
80945;BME280;70400;50.934;11.590;2024-03-23T00:55:45;99287.72;;;7.11;86.86
80945;BME280;70400;50.934;11.590;2024-03-23T00:56:35;99285.25;;;7.10;86.74
80945;BME280;70400;50.934;11.590;2024-03-23T00:57:24;99280.13;;;7.08;86.74
80945;BME280;70400;50.934;11.590;2024-03-23T00:58:15;99282.34;;;7.03;86.72
80945;BME280;70400;50.934;11.590;2024-03-23T00:59:05;99281.63;;;6.91;87.08
80945;BME280;70400;50.934;11.590;2024-03-23T00:59:55;99275.03;;;6.87;87.55
80945;BME280;70400;50.934;11.590;2024-03-23T01:00:44;99279.81;;;6.92;87.32
80945;BME280;70400;50.934;11.590;2024-03-23T01:01:34;99274.16;;;6.87;87.58
80945;BME280;70400;50.934;11.590;2024-03-23T01:02:26;99271.28;;;6.80;87.89
80945;BME280;70400;50.934;11.590;2024-03-23T01:03:18;99266.59;;;6.84;87.46
80945;BME280;70400;50.934;11.590;2024-03-23T01:04:08;99277.22;;;6.92;87.49
80945;BME280;70400;50.934;11.590;2024-03-23T01:04:58;99267.56;;;6.92;87.52
80945;BME280;70400;50.934;11.590;2024-03-23T01:05:48;99259.03;;;6.90;87.25
80945;BME280;70400;50.934;11.590;2024-03-23T01:06:38;99266.75;;;6.82;87.74
80945;BME280;70400;50.934;11.590;2024-03-23T01:07:28;99256.78;;;6.76;87.58
80945;BME280;70400;50.934;11.590;2024-03-23T01:08:18;99264.66;;;6.86;88.02
80945;BME280;70400;50.934;11.590;2024-03-23T01:09:08;99264.25;;;6.81;87.74
80945;BME280;70400;50.934;11.590;2024-03-23T01:10:00;99269.34;;;6.72;88.09
80945;BME280;70400;50.934;11.590;2024-03-23T01:10:59;99267.97;;;6.78;88.45
80945;BME280;70400;50.934;11.590;2024-03-23T01:11:49;99264.09;;;6.72;87.98
80945;BME280;70400;50.934;11.590;2024-03-23T01:12:39;99267.69;;;6.71;87.63
80945;BME280;70400;50.934;11.590;2024-03-23T01:13:31;99266.44;;;6.76;88.25
80945;BME280;70400;50.934;11.590;2024-03-23T01:14:21;99268.94;;;6.67;88.07
80945;BME280;70400;50.934;11.590;2024-03-23T01:15:11;99265.19;;;6.60;88.32
80945;BME280;70400;50.934;11.590;2024-03-23T01:16:01;99270.44;;;6.60;88.61
80945;BME280;70400;50.934;11.590;2024-03-23T01:16:51;99262.59;;;6.70;88.68
80945;BME280;70400;50.934;11.590;2024-03-23T01:17:41;99267.00;;;6.79;88.67
80945;BME280;70400;50.934;11.590;2024-03-23T01:18:31;99272.50;;;6.76;88.27
80945;BME280;70400;50.934;11.590;2024-03-23T01:19:22;99266.84;;;6.71;88.29
80945;BME280;70400;50.934;11.590;2024-03-23T01:20:12;99267.81;;;6.60;88.31
80945;BME280;70400;50.934;11.590;2024-03-23T01:21:02;99265.59;;;6.56;88.84
80945;BME280;70400;50.934;11.590;2024-03-23T01:21:52;99272.06;;;6.61;88.50
80945;BME280;70400;50.934;11.590;2024-03-23T01:22:42;99268.63;;;6.61;87.63
80945;BME280;70400;50.934;11.590;2024-03-23T01:23:32;99268.63;;;6.61;88.10
80945;BME280;70400;50.934;11.590;2024-03-23T01:24:22;99269.63;;;6.69;88.26
80945;BME280;70400;50.934;11.590;2024-03-23T01:25:12;99263.56;;;6.59;87.77
80945;BME280;70400;50.934;11.590;2024-03-23T01:26:02;99258.72;;;6.55;88.39
80945;BME280;70400;50.934;11.590;2024-03-23T01:26:51;99260.50;;;6.54;88.36
80945;BME280;70400;50.934;11.590;2024-03-23T01:27:41;99252.50;;;6.56;88.42
80945;BME280;70400;50.934;11.590;2024-03-23T01:28:31;99250.44;;;6.59;88.80
80945;BME280;70400;50.934;11.590;2024-03-23T01:29:21;99249.75;;;6.57;88.07
80945;BME280;70400;50.934;11.590;2024-03-23T01:30:11;99244.22;;;6.50;87.81
80945;BME280;70400;50.934;11.590;2024-03-23T01:31:03;99252.91;;;6.51;88.25
80945;BME280;70400;50.934;11.590;2024-03-23T01:31:53;99248.91;;;6.47;88.67
80945;BME280;70400;50.934;11.590;2024-03-23T01:32:43;99244.88;;;6.43;88.75
80945;BME280;70400;50.934;11.590;2024-03-23T01:33:33;99246.56;;;6.44;88.72
80945;BME280;70400;50.934;11.590;2024-03-23T01:34:22;99246.41;;;6.45;88.80
80945;BME280;70400;50.934;11.590;2024-03-23T01:35:14;99245.72;;;6.43;88.48
80945;BME280;70400;50.934;11.590;2024-03-23T01:36:04;99239.81;;;6.51;88.77
80945;BME280;70400;50.934;11.590;2024-03-23T01:36:54;99234.00;;;6.47;88.84
80945;BME280;70400;50.934;11.590;2024-03-23T01:37:44;99231.94;;;6.41;89.03
80945;BME280;70400;50.934;11.590;2024-03-23T01:38:33;99233.47;;;6.44;88.92
80945;BME280;70400;50.934;11.590;2024-03-23T01:39:24;99231.25;;;6.39;88.58
80945;BME280;70400;50.934;11.590;2024-03-23T01:40:16;99227.50;;;6.32;88.29
80945;BME280;70400;50.934;11.590;2024-03-23T01:41:05;99235.09;;;6.35;88.59
80945;BME280;70400;50.934;11.590;2024-03-23T01:41:55;99235.38;;;6.32;88.89
80945;BME280;70400;50.934;11.590;2024-03-23T01:42:59;99239.91;;;6.30;89.58
80945;BME280;70400;50.934;11.590;2024-03-23T01:43:53;99235.78;;;6.37;89.47
80945;BME280;70400;50.934;11.590;2024-03-23T01:44:44;99239.38;;;6.46;89.45
80945;BME280;70400;50.934;11.590;2024-03-23T01:45:34;99241.31;;;6.44;89.13
80945;BME280;70400;50.934;11.590;2024-03-23T01:46:24;99242.16;;;6.44;89.02
80945;BME280;70400;50.934;11.590;2024-03-23T01:47:14;99237.31;;;6.40;89.05
80945;BME280;70400;50.934;11.590;2024-03-23T01:48:04;99235.22;;;6.43;89.17
80945;BME280;70400;50.934;11.590;2024-03-23T01:48:55;99241.47;;;6.52;88.77
80945;BME280;70400;50.934;11.590;2024-03-23T01:49:45;99235.13;;;6.55;88.42
80945;BME280;70400;50.934;11.590;2024-03-23T01:50:35;99231.69;;;6.64;88.13
80945;BME280;70400;50.934;11.590;2024-03-23T01:51:25;99237.75;;;6.74;88.17
80945;BME280;70400;50.934;11.590;2024-03-23T01:52:15;99234.59;;;6.80;88.29
80945;BME280;70400;50.934;11.590;2024-03-23T01:53:05;99247.13;;;6.77;88.02
80945;BME280;70400;50.934;11.590;2024-03-23T01:53:56;99240.94;;;6.78;88.02
80945;BME280;70400;50.934;11.590;2024-03-23T01:54:47;99233.91;;;6.78;87.52
80945;BME280;70400;50.934;11.590;2024-03-23T01:55:36;99233.09;;;6.78;87.98
80945;BME280;70400;50.934;11.590;2024-03-23T01:56:31;99234.03;;;6.77;87.49
80945;BME280;70400;50.934;11.590;2024-03-23T01:57:23;99234.44;;;6.82;87.26
80945;BME280;70400;50.934;11.590;2024-03-23T01:58:13;99225.78;;;6.91;87.67
80945;BME280;70400;50.934;11.590;2024-03-23T01:59:06;99226.59;;;6.91;87.44
80945;BME280;70400;50.934;11.590;2024-03-23T01:59:56;99218.47;;;6.85;87.57
80945;BME280;70400;50.934;11.590;2024-03-23T02:00:50;99212.13;;;6.87;87.64
80945;BME280;70400;50.934;11.590;2024-03-23T02:01:40;99216.38;;;6.88;87.88
80945;BME280;70400;50.934;11.590;2024-03-23T02:02:31;99214.31;;;6.92;87.51
80945;BME280;70400;50.934;11.590;2024-03-23T02:03:25;99214.72;;;6.97;87.55
80945;BME280;70400;50.934;11.590;2024-03-23T02:04:15;99214.06;;;6.95;87.45
80945;BME280;70400;50.934;11.590;2024-03-23T02:05:05;99218.31;;;6.96;87.94
80945;BME280;70400;50.934;11.590;2024-03-23T02:05:56;99212.53;;;6.92;87.58
80945;BME280;70400;50.934;11.590;2024-03-23T02:06:46;99214.88;;;6.86;87.57
80945;BME280;70400;50.934;11.590;2024-03-23T02:07:37;99205.78;;;6.90;87.80
80945;BME280;70400;50.934;11.590;2024-03-23T02:08:28;99208.81;;;6.95;87.45
80945;BME280;70400;50.934;11.590;2024-03-23T02:09:19;99207.28;;;6.92;87.61
80945;BME280;70400;50.934;11.590;2024-03-23T02:10:10;99203.81;;;6.92;87.90
80945;BME280;70400;50.934;11.590;2024-03-23T02:11:02;99200.78;;;6.87;87.83
80945;BME280;70400;50.934;11.590;2024-03-23T02:11:52;99203.41;;;6.87;88.02
80945;BME280;70400;50.934;11.590;2024-03-23T02:12:42;99191.97;;;6.88;88.06
80945;BME280;70400;50.934;11.590;2024-03-23T02:13:32;99191.56;;;6.92;88.11
80945;BME280;70400;50.934;11.590;2024-03-23T02:14:22;99193.09;;;6.95;87.86
80945;BME280;70400;50.934;11.590;2024-03-23T02:15:12;99192.22;;;6.94;87.91
80945;BME280;70400;50.934;11.590;2024-03-23T02:16:02;99184.53;;;6.93;87.69
80945;BME280;70400;50.934;11.590;2024-03-23T02:16:52;99185.47;;;6.92;87.82
80945;BME280;70400;50.934;11.590;2024-03-23T02:17:42;99180.53;;;6.89;88.06
80945;BME280;70400;50.934;11.590;2024-03-23T02:18:35;99186.03;;;6.86;88.25
80945;BME280;70400;50.934;11.590;2024-03-23T02:19:24;99181.78;;;6.85;88.16
80945;BME280;70400;50.934;11.590;2024-03-23T02:20:14;99180.53;;;6.79;87.96
80945;BME280;70400;50.934;11.590;2024-03-23T02:21:04;99182.44;;;6.87;88.54
80945;BME280;70400;50.934;11.590;2024-03-23T02:21:54;99173.47;;;6.89;88.14
80945;BME280;70400;50.934;11.590;2024-03-23T02:22:44;99172.94;;;6.86;87.87
80945;BME280;70400;50.934;11.590;2024-03-23T02:23:34;99170.44;;;6.84;87.74
80945;BME280;70400;50.934;11.590;2024-03-23T02:24:24;99178.47;;;6.92;87.96
80945;BME280;70400;50.934;11.590;2024-03-23T02:25:14;99176.38;;;6.96;88.06
80945;BME280;70400;50.934;11.590;2024-03-23T02:26:04;99177.78;;;6.90;87.44
80945;BME280;70400;50.934;11.590;2024-03-23T02:26:54;99172.94;;;6.86;87.61
80945;BME280;70400;50.934;11.590;2024-03-23T02:27:43;99174.75;;;6.85;87.82
80945;BME280;70400;50.934;11.590;2024-03-23T02:28:33;99175.03;;;6.72;88.23
80945;BME280;70400;50.934;11.590;2024-03-23T02:29:23;99175.84;;;6.73;88.63
80945;BME280;70400;50.934;11.590;2024-03-23T02:30:13;99171.56;;;6.82;88.33
80945;BME280;70400;50.934;11.590;2024-03-23T02:31:03;99169.09;;;6.90;88.46
80945;BME280;70400;50.934;11.590;2024-03-23T02:31:54;99170.84;;;6.89;88.58
80945;BME280;70400;50.934;11.590;2024-03-23T02:32:44;99172.13;;;6.85;88.54
80945;BME280;70400;50.934;11.590;2024-03-23T02:33:34;99164.78;;;6.99;88.31
80945;BME280;70400;50.934;11.590;2024-03-23T02:34:27;99161.88;;;7.02;87.58
80945;BME280;70400;50.934;11.590;2024-03-23T02:35:17;99159.66;;;6.97;88.07
80945;BME280;70400;50.934;11.590;2024-03-23T02:36:07;99157.34;;;6.84;88.16
80945;BME280;70400;50.934;11.590;2024-03-23T02:36:57;99161.94;;;6.82;88.83
80945;BME280;70400;50.934;11.590;2024-03-23T02:37:47;99157.22;;;6.76;89.37
80945;BME280;70400;50.934;11.590;2024-03-23T02:38:38;99162.47;;;6.76;89.37
80945;BME280;70400;50.934;11.590;2024-03-23T02:39:28;99157.09;;;6.78;89.29
80945;BME280;70400;50.934;11.590;2024-03-23T02:40:18;99147.16;;;6.71;89.44
80945;BME280;70400;50.934;11.590;2024-03-23T02:41:08;99149.38;;;6.66;89.50
80945;BME280;70400;50.934;11.590;2024-03-23T02:41:57;99154.88;;;6.73;89.33
80945;BME280;70400;50.934;11.590;2024-03-23T02:42:47;99152.81;;;6.77;89.10
80945;BME280;70400;50.934;11.590;2024-03-23T02:43:37;99150.47;;;6.73;89.02
80945;BME280;70400;50.934;11.590;2024-03-23T02:44:27;99149.22;;;6.68;89.71
80945;BME280;70400;50.934;11.590;2024-03-23T02:45:18;99140.81;;;6.74;89.65
80945;BME280;70400;50.934;11.590;2024-03-23T02:46:08;99144.00;;;6.68;89.57
80945;BME280;70400;50.934;11.590;2024-03-23T02:46:58;99149.53;;;6.65;89.74
80945;BME280;70400;50.934;11.590;2024-03-23T02:47:47;99150.47;;;6.73;89.82
80945;BME280;70400;50.934;11.590;2024-03-23T02:48:41;99148.00;;;6.62;89.64
80945;BME280;70400;50.934;11.590;2024-03-23T02:49:31;99149.09;;;6.69;90.09
80945;BME280;70400;50.934;11.590;2024-03-23T02:50:22;99145.91;;;6.66;90.05
80945;BME280;70400;50.934;11.590;2024-03-23T02:51:12;99139.16;;;6.63;90.50
80945;BME280;70400;50.934;11.590;2024-03-23T02:52:01;99139.16;;;6.63;90.57
80945;BME280;70400;50.934;11.590;2024-03-23T02:52:51;99136.00;;;6.60;90.48
80945;BME280;70400;50.934;11.590;2024-03-23T02:53:41;99143.47;;;6.64;90.79
80945;BME280;70400;50.934;11.590;2024-03-23T02:54:31;99138.22;;;6.64;90.89
80945;BME280;70400;50.934;11.590;2024-03-23T02:55:21;99133.94;;;6.63;90.47
80945;BME280;70400;50.934;11.590;2024-03-23T02:56:12;99140.97;;;6.63;90.68
80945;BME280;70400;50.934;11.590;2024-03-23T02:57:05;99128.41;;;6.66;90.63
80945;BME280;70400;50.934;11.590;2024-03-23T02:57:55;99123.84;;;6.68;90.60
80945;BME280;70400;50.934;11.590;2024-03-23T02:58:45;99124.13;;;6.75;90.47
80945;BME280;70400;50.934;11.590;2024-03-23T02:59:35;99123.97;;;6.77;89.92
80945;BME280;70400;50.934;11.590;2024-03-23T03:00:25;99123.03;;;6.78;90.07
80945;BME280;70400;50.934;11.590;2024-03-23T03:01:15;99118.75;;;6.77;89.98
80945;BME280;70400;50.934;11.590;2024-03-23T03:02:05;99114.59;;;6.74;89.83
80945;BME280;70400;50.934;11.590;2024-03-23T03:02:54;99110.63;;;6.70;90.17
80945;BME280;70400;50.934;11.590;2024-03-23T03:03:45;99114.47;;;6.76;90.14
80945;BME280;70400;50.934;11.590;2024-03-23T03:04:35;99119.31;;;6.70;89.82
80945;BME280;70400;50.934;11.590;2024-03-23T03:05:25;99111.31;;;6.72;90.33
80945;BME280;70400;50.934;11.590;2024-03-23T03:06:23;99111.44;;;6.70;89.97
80945;BME280;70400;50.934;11.590;2024-03-23T03:07:13;99113.66;;;6.75;90.32
80945;BME280;70400;50.934;11.590;2024-03-23T03:08:03;99116.69;;;6.70;89.75
80945;BME280;70400;50.934;11.590;2024-03-23T03:08:53;99114.88;;;6.71;89.84
80945;BME280;70400;50.934;11.590;2024-03-23T03:09:43;99116.81;;;6.79;90.28
80945;BME280;70400;50.934;11.590;2024-03-23T03:10:33;99115.00;;;6.79;89.76
80945;BME280;70400;50.934;11.590;2024-03-23T03:11:25;99114.88;;;6.81;89.46
80945;BME280;70400;50.934;11.590;2024-03-23T03:12:15;99114.75;;;6.82;89.35
80945;BME280;70400;50.934;11.590;2024-03-23T03:13:05;99119.56;;;6.87;89.25
80945;BME280;70400;50.934;11.590;2024-03-23T03:13:55;99116.91;;;6.96;89.47
80945;BME280;70400;50.934;11.590;2024-03-23T03:14:45;99112.25;;;6.90;89.00
80945;BME280;70400;50.934;11.590;2024-03-23T03:15:35;99117.50;;;6.90;88.65
80945;BME280;70400;50.934;11.590;2024-03-23T03:16:25;99108.81;;;6.90;89.03
80945;BME280;70400;50.934;11.590;2024-03-23T03:17:15;99110.44;;;6.91;88.92
80945;BME280;70400;50.934;11.590;2024-03-23T03:18:04;99109.91;;;6.87;89.80
80945;BME280;70400;50.934;11.590;2024-03-23T03:18:54;99105.22;;;6.91;89.48
80945;BME280;70400;50.934;11.590;2024-03-23T03:19:45;99100.63;;;7.03;89.31
80945;BME280;70400;50.934;11.590;2024-03-23T03:20:39;99104.22;;;7.02;89.18
80945;BME280;70400;50.934;11.590;2024-03-23T03:21:32;99096.22;;;7.03;89.11
80945;BME280;70400;50.934;11.590;2024-03-23T03:22:22;99088.66;;;7.00;89.21
80945;BME280;70400;50.934;11.590;2024-03-23T03:23:12;99083.41;;;7.00;89.18
80945;BME280;70400;50.934;11.590;2024-03-23T03:24:02;99085.31;;;7.08;88.99
80945;BME280;70400;50.934;11.590;2024-03-23T03:24:52;99079.09;;;7.09;88.61
80945;BME280;70400;50.934;11.590;2024-03-23T03:25:42;99081.81;;;7.17;88.52
80945;BME280;70400;50.934;11.590;2024-03-23T03:26:32;99084.28;;;7.18;88.01
80945;BME280;70400;50.934;11.590;2024-03-23T03:27:22;99078.06;;;7.20;88.53
80945;BME280;70400;50.934;11.590;2024-03-23T03:28:12;99073.13;;;7.16;88.26
80945;BME280;70400;50.934;11.590;2024-03-23T03:29:02;99066.53;;;7.12;88.32
80945;BME280;70400;50.934;11.590;2024-03-23T03:29:52;99070.78;;;7.13;88.56
80945;BME280;70400;50.934;11.590;2024-03-23T03:30:42;99073.69;;;7.20;88.35
80945;BME280;70400;50.934;11.590;2024-03-23T03:31:32;99071.06;;;7.20;88.42
80945;BME280;70400;50.934;11.590;2024-03-23T03:32:22;99065.25;;;7.16;88.66
80945;BME280;70400;50.934;11.590;2024-03-23T03:33:12;99073.81;;;7.18;89.13
80945;BME280;70400;50.934;11.590;2024-03-23T03:34:02;99075.63;;;7.18;88.75
80945;BME280;70400;50.934;11.590;2024-03-23T03:34:52;99074.50;;;7.21;88.76
80945;BME280;70400;50.934;11.590;2024-03-23T03:35:42;99072.16;;;7.17;88.60
80945;BME280;70400;50.934;11.590;2024-03-23T03:36:33;99073.13;;;7.16;88.83
80945;BME280;70400;50.934;11.590;2024-03-23T03:37:22;99075.63;;;7.18;89.09
80945;BME280;70400;50.934;11.590;2024-03-23T03:38:12;99065.81;;;7.20;88.97
80945;BME280;70400;50.934;11.590;2024-03-23T03:39:02;99054.72;;;7.26;88.54
80945;BME280;70400;50.934;11.590;2024-03-23T03:39:53;99042.06;;;7.22;88.41
80945;BME280;70400;50.934;11.590;2024-03-23T03:40:43;99028.81;;;7.23;88.26
80945;BME280;70400;50.934;11.590;2024-03-23T03:41:33;99031.72;;;7.20;88.28
80945;BME280;70400;50.934;11.590;2024-03-23T03:42:23;99040.31;;;7.12;88.41
80945;BME280;70400;50.934;11.590;2024-03-23T03:43:13;99046.81;;;7.08;88.83
80945;BME280;70400;50.934;11.590;2024-03-23T03:44:03;99054.66;;;7.08;89.16
80945;BME280;70400;50.934;11.590;2024-03-23T03:44:53;99050.22;;;7.18;88.62
80945;BME280;70400;50.934;11.590;2024-03-23T03:45:51;99057.25;;;7.18;88.28
80945;BME280;70400;50.934;11.590;2024-03-23T03:46:41;99046.59;;;7.20;88.19
80945;BME280;70400;50.934;11.590;2024-03-23T03:47:31;99038.09;;;7.17;88.11
80945;BME280;70400;50.934;11.590;2024-03-23T03:48:21;99040.72;;;7.17;88.22
80945;BME280;70400;50.934;11.590;2024-03-23T03:49:11;99036.81;;;7.22;88.01
80945;BME280;70400;50.934;11.590;2024-03-23T03:50:00;99045.78;;;7.19;88.14
80945;BME280;70400;50.934;11.590;2024-03-23T03:50:52;99040.97;;;7.14;88.27
80945;BME280;70400;50.934;11.590;2024-03-23T03:51:42;99039.03;;;7.16;88.29
80945;BME280;70400;50.934;11.590;2024-03-23T03:52:32;99036.97;;;7.20;88.13
80945;BME280;70400;50.934;11.590;2024-03-23T03:53:22;99029.22;;;7.18;87.95
80945;BME280;70400;50.934;11.590;2024-03-23T03:54:11;99027.13;;;7.22;88.23
80945;BME280;70400;50.934;11.590;2024-03-23T03:55:02;99020.69;;;7.16;88.23
80945;BME280;70400;50.934;11.590;2024-03-23T03:55:52;99010.19;;;7.16;87.76
80945;BME280;70400;50.934;11.590;2024-03-23T03:56:42;99006.66;;;7.08;88.36
80945;BME280;70400;50.934;11.590;2024-03-23T03:57:32;99003.84;;;7.19;88.58
80945;BME280;70400;50.934;11.590;2024-03-23T03:58:22;99010.84;;;7.28;87.70
80945;BME280;70400;50.934;11.590;2024-03-23T03:59:12;99009.25;;;7.17;88.06
80945;BME280;70400;50.934;11.590;2024-03-23T04:00:02;99010.78;;;7.10;88.37
80945;BME280;70400;50.934;11.590;2024-03-23T04:00:53;99013.72;;;7.07;88.80
80945;BME280;70400;50.934;11.590;2024-03-23T04:01:43;99013.16;;;7.04;89.71
80945;BME280;70400;50.934;11.590;2024-03-23T04:02:33;99012.03;;;7.06;89.62
80945;BME280;70400;50.934;11.590;2024-03-23T04:03:23;99007.75;;;7.15;89.64
80945;BME280;70400;50.934;11.590;2024-03-23T04:04:13;99016.13;;;7.18;88.90
80945;BME280;70400;50.934;11.590;2024-03-23T04:05:04;99010.44;;;7.23;89.16
80945;BME280;70400;50.934;11.590;2024-03-23T04:05:54;99016.25;;;7.17;89.06
80945;BME280;70400;50.934;11.590;2024-03-23T04:06:44;99014.09;;;7.12;89.62
80945;BME280;70400;50.934;11.590;2024-03-23T04:07:34;99020.69;;;7.16;89.39
80945;BME280;70400;50.934;11.590;2024-03-23T04:08:24;99020.13;;;7.23;88.98
80945;BME280;70400;50.934;11.590;2024-03-23T04:09:13;99025.28;;;7.32;88.77
80945;BME280;70400;50.934;11.590;2024-03-23T04:10:05;99026.13;;;7.33;88.28
80945;BME280;70400;50.934;11.590;2024-03-23T04:10:57;99019.22;;;7.32;88.43
80945;BME280;70400;50.934;11.590;2024-03-23T04:11:47;99017.59;;;7.31;88.54
80945;BME280;70400;50.934;11.590;2024-03-23T04:12:37;99013.28;;;7.30;88.89
80945;BME280;70400;50.934;11.590;2024-03-23T04:13:27;99012.56;;;7.37;88.92
80945;BME280;70400;50.934;11.590;2024-03-23T04:14:17;98996.56;;;7.41;88.67
80945;BME280;70400;50.934;11.590;2024-03-23T04:15:07;98994.44;;;7.44;88.41
80945;BME280;70400;50.934;11.590;2024-03-23T04:15:58;98977.16;;;7.51;88.54
80945;BME280;70400;50.934;11.590;2024-03-23T04:16:48;98972.22;;;7.48;89.15
80945;BME280;70400;50.934;11.590;2024-03-23T04:17:38;98962.53;;;7.49;89.02
80945;BME280;70400;50.934;11.590;2024-03-23T04:18:27;98962.28;;;7.42;89.00
80945;BME280;70400;50.934;11.590;2024-03-23T04:19:17;98979.59;;;7.53;89.06
80945;BME280;70400;50.934;11.590;2024-03-23T04:20:08;98984.59;;;7.56;89.37
80945;BME280;70400;50.934;11.590;2024-03-23T04:21:00;98984.72;;;7.54;89.56
80945;BME280;70400;50.934;11.590;2024-03-23T04:21:50;98980.53;;;7.44;89.76
80945;BME280;70400;50.934;11.590;2024-03-23T04:22:40;98978.56;;;7.46;90.12
80945;BME280;70400;50.934;11.590;2024-03-23T04:23:30;98973.34;;;7.46;90.23
80945;BME280;70400;50.934;11.590;2024-03-23T04:24:20;98967.25;;;7.45;90.22
80945;BME280;70400;50.934;11.590;2024-03-23T04:25:12;98968.97;;;7.54;90.26
80945;BME280;70400;50.934;11.590;2024-03-23T04:26:05;98961.84;;;7.47;90.63
80945;BME280;70400;50.934;11.590;2024-03-23T04:26:54;98966.28;;;7.46;90.80
80945;BME280;70400;50.934;11.590;2024-03-23T04:27:44;98960.88;;;7.48;90.77
80945;BME280;70400;50.934;11.590;2024-03-23T04:28:34;98958.59;;;7.35;91.13
80945;BME280;70400;50.934;11.590;2024-03-23T04:29:24;98950.59;;;7.36;91.66
80945;BME280;70400;50.934;11.590;2024-03-23T04:30:15;98956.59;;;7.47;91.25
80945;BME280;70400;50.934;11.590;2024-03-23T04:31:06;98953.00;;;7.48;91.09
80945;BME280;70400;50.934;11.590;2024-03-23T04:31:56;98956.31;;;7.50;91.25
80945;BME280;70400;50.934;11.590;2024-03-23T04:32:45;98957.13;;;7.50;91.20
80945;BME280;70400;50.934;11.590;2024-03-23T04:33:36;98954.28;;;7.44;91.31
80945;BME280;70400;50.934;11.590;2024-03-23T04:34:26;98957.22;;;7.41;92.03
80945;BME280;70400;50.934;11.590;2024-03-23T04:35:15;98959.97;;;7.39;91.76
80945;BME280;70400;50.934;11.590;2024-03-23T04:36:05;98951.59;;;7.35;91.81
80945;BME280;70400;50.934;11.590;2024-03-23T04:36:57;98962.66;;;7.29;91.94
80945;BME280;70400;50.934;11.590;2024-03-23T04:37:47;98958.22;;;7.30;92.48
80945;BME280;70400;50.934;11.590;2024-03-23T04:38:37;98954.88;;;7.37;92.05
80945;BME280;70400;50.934;11.590;2024-03-23T04:39:26;98947.16;;;7.36;92.25
80945;BME280;70400;50.934;11.590;2024-03-23T04:40:16;98945.50;;;7.35;92.32
80945;BME280;70400;50.934;11.590;2024-03-23T04:41:06;98944.28;;;7.29;92.38
80945;BME280;70400;50.934;11.590;2024-03-23T04:41:56;98949.41;;;7.31;92.91
80945;BME280;70400;50.934;11.590;2024-03-23T04:42:46;98946.78;;;7.31;92.84
80945;BME280;70400;50.934;11.590;2024-03-23T04:43:36;98952.97;;;7.30;93.00
80945;BME280;70400;50.934;11.590;2024-03-23T04:44:26;98956.53;;;7.38;92.95
80945;BME280;70400;50.934;11.590;2024-03-23T04:45:16;98968.81;;;7.38;92.86
80945;BME280;70400;50.934;11.590;2024-03-23T04:46:05;98972.78;;;7.42;92.74
80945;BME280;70400;50.934;11.590;2024-03-23T04:46:55;98967.84;;;7.39;93.49
80945;BME280;70400;50.934;11.590;2024-03-23T04:47:45;98960.50;;;7.43;93.34
80945;BME280;70400;50.934;11.590;2024-03-23T04:48:36;98961.03;;;7.46;93.41
80945;BME280;70400;50.934;11.590;2024-03-23T04:49:28;98959.53;;;7.44;93.02
80945;BME280;70400;50.934;11.590;2024-03-23T04:50:19;98952.41;;;7.36;93.59
80945;BME280;70400;50.934;11.590;2024-03-23T04:51:09;98945.66;;;7.33;93.47
80945;BME280;70400;50.934;11.590;2024-03-23T04:52:00;98946.03;;;7.38;93.50
80945;BME280;70400;50.934;11.590;2024-03-23T04:52:50;98941.63;;;7.39;93.21
80945;BME280;70400;50.934;11.590;2024-03-23T04:53:40;98946.41;;;7.26;93.52
80945;BME280;70400;50.934;11.590;2024-03-23T04:54:30;98939.22;;;7.28;93.98
80945;BME280;70400;50.934;11.590;2024-03-23T04:55:22;98939.59;;;7.33;93.94
80945;BME280;70400;50.934;11.590;2024-03-23T04:56:12;98928.94;;;7.34;94.11
80945;BME280;70400;50.934;11.590;2024-03-23T04:57:02;98918.63;;;7.33;93.79
80945;BME280;70400;50.934;11.590;2024-03-23T04:57:52;98916.25;;;7.30;93.97
80945;BME280;70400;50.934;11.590;2024-03-23T04:58:43;98909.75;;;7.34;94.10
80945;BME280;70400;50.934;11.590;2024-03-23T04:59:33;98908.25;;;7.31;94.29
80945;BME280;70400;50.934;11.590;2024-03-23T05:00:23;98898.91;;;7.29;94.35
80945;BME280;70400;50.934;11.590;2024-03-23T05:01:13;98898.38;;;7.25;94.53
80945;BME280;70400;50.934;11.590;2024-03-23T05:02:03;98892.28;;;7.25;94.32
80945;BME280;70400;50.934;11.590;2024-03-23T05:02:53;98889.66;;;7.25;94.80
80945;BME280;70400;50.934;11.590;2024-03-23T05:03:43;98888.63;;;7.17;94.64
80945;BME280;70400;50.934;11.590;2024-03-23T05:04:33;98891.69;;;7.13;94.62
80945;BME280;70400;50.934;11.590;2024-03-23T05:05:22;98880.53;;;7.11;95.09
80945;BME280;70400;50.934;11.590;2024-03-23T05:06:13;98882.25;;;7.02;95.01
80945;BME280;70400;50.934;11.590;2024-03-23T05:07:03;98882.53;;;6.99;95.08
80945;BME280;70400;50.934;11.590;2024-03-23T05:07:53;98889.69;;;6.97;95.71
80945;BME280;70400;50.934;11.590;2024-03-23T05:08:43;98897.56;;;6.97;95.53
80945;BME280;70400;50.934;11.590;2024-03-23T05:09:33;98902.91;;;7.05;96.14
80945;BME280;70400;50.934;11.590;2024-03-23T05:10:23;98904.44;;;7.08;96.22
80945;BME280;70400;50.934;11.590;2024-03-23T05:11:13;98898.06;;;7.10;96.04
80945;BME280;70400;50.934;11.590;2024-03-23T05:12:03;98894.16;;;7.14;96.30
80945;BME280;70400;50.934;11.590;2024-03-23T05:12:53;98886.47;;;7.31;96.08
80945;BME280;70400;50.934;11.590;2024-03-23T05:13:44;98882.09;;;7.39;95.22
80945;BME280;70400;50.934;11.590;2024-03-23T05:14:33;98878.06;;;7.45;95.04
80945;BME280;70400;50.934;11.590;2024-03-23T05:15:23;98884.41;;;7.43;95.15
80945;BME280;70400;50.934;11.590;2024-03-23T05:16:13;98881.97;;;7.41;95.17
80945;BME280;70400;50.934;11.590;2024-03-23T05:17:03;98884.34;;;7.34;95.44
80945;BME280;70400;50.934;11.590;2024-03-23T05:17:53;98876.19;;;7.37;95.38
80945;BME280;70400;50.934;11.590;2024-03-23T05:18:43;98878.44;;;7.50;95.04
80945;BME280;70400;50.934;11.590;2024-03-23T05:19:33;98866.81;;;7.53;94.50